Terminal Aerodrome Forecast
Issued by NWS Nashville, TN

Home | Current Version | Previous Version | Text Only | Print | Product List | Glossary On
Versions: 1 2 3 4 5 6 7 8 9 10 11 12 13 14 15 16 17 18 19 20 21 22 23 24 25 26 27 28 29 30 31 32 33 34 35 36 37 38 39 40
000
FTUS44 KOHX 190520
TAFBNA
TAF
KBNA 190520Z 1906/2006 10004KT P6SM FEW009 SCT040 BKN150
     FM190800 16009G15KT 6SM -SHRA OVC040
      TEMPO 1909/1912 5SM -SHRA OVC025
     FM191200 17012G20KT 5SM -SHRA OVC025
      TEMPO 1912/1915 2SM SHRA OVC015
     FM191900 20010G17KT 5SM -SHRA OVC015 WS020/20040KT
     FM200400 33016G26KT 6SM -SHRASN OVC010=

USA.gov is the U.S. government's official web portal to all federal, state and local government web resources and services.